sensor_id;sensor_type;location;lat;lon;timestamp;P1;durP1;ratioP1;P2;durP2;ratioP2
69953;SDS011;57276;51.364;12.376;2023-03-13T00:02:02;12.77;;;3.40;;
69953;SDS011;57276;51.364;12.376;2023-03-13T00:08:04;10.80;;;3.70;;
69953;SDS011;57276;51.364;12.376;2023-03-13T00:14:05;11.35;;;3.40;;
69953;SDS011;57276;51.364;12.376;2023-03-13T00:20:07;9.43;;;3.40;;
69953;SDS011;57276;51.364;12.376;2023-03-13T00:26:12;9.03;;;2.90;;
69953;SDS011;57276;51.364;12.376;2023-03-13T00:32:14;13.50;;;3.35;;
69953;SDS011;57276;51.364;12.376;2023-03-13T00:38:16;12.97;;;3.30;;
69953;SDS011;57276;51.364;12.376;2023-03-13T00:44:17;10.65;;;3.42;;
69953;SDS011;57276;51.364;12.376;2023-03-13T00:50:21;15.32;;;3.58;;
69953;SDS011;57276;51.364;12.376;2023-03-13T00:56:22;9.33;;;2.87;;
69953;SDS011;57276;51.364;12.376;2023-03-13T01:02:24;15.10;;;3.17;;
69953;SDS011;57276;51.364;12.376;2023-03-13T01:08:26;11.83;;;3.07;;
69953;SDS011;57276;51.364;12.376;2023-03-13T01:14:27;11.15;;;3.08;;
69953;SDS011;57276;51.364;12.376;2023-03-13T01:20:29;13.48;;;3.00;;
69953;SDS011;57276;51.364;12.376;2023-03-13T01:26:31;12.70;;;2.90;;
69953;SDS011;57276;51.364;12.376;2023-03-13T01:32:35;9.50;;;2.70;;
69953;SDS011;57276;51.364;12.376;2023-03-13T01:38:37;10.97;;;3.07;;
69953;SDS011;57276;51.364;12.376;2023-03-13T01:44:49;13.52;;;2.95;;
69953;SDS011;57276;51.364;12.376;2023-03-13T01:50:52;12.23;;;3.00;;
69953;SDS011;57276;51.364;12.376;2023-03-13T01:57:04;14.40;;;2.70;;
69953;SDS011;57276;51.364;12.376;2023-03-13T02:03:08;13.07;;;3.10;;
69953;SDS011;57276;51.364;12.376;2023-03-13T02:09:11;10.43;;;2.97;;
69953;SDS011;57276;51.364;12.376;2023-03-13T02:15:15;11.63;;;3.13;;
69953;SDS011;57276;51.364;12.376;2023-03-13T02:27:25;12.57;;;2.30;;
69953;SDS011;57276;51.364;12.376;2023-03-13T02:33:28;14.93;;;2.65;;
69953;SDS011;57276;51.364;12.376;2023-03-13T02:39:30;11.50;;;2.33;;
69953;SDS011;57276;51.364;12.376;2023-03-13T02:45:33;15.18;;;2.67;;
69953;SDS011;57276;51.364;12.376;2023-03-13T02:51:35;15.15;;;2.70;;
69953;SDS011;57276;51.364;12.376;2023-03-13T02:57:38;11.97;;;3.47;;
69953;SDS011;57276;51.364;12.376;2023-03-13T03:03:40;13.32;;;2.65;;
69953;SDS011;57276;51.364;12.376;2023-03-13T03:09:42;12.90;;;2.57;;
69953;SDS011;57276;51.364;12.376;2023-03-13T03:15:50;9.35;;;2.33;;
69953;SDS011;57276;51.364;12.376;2023-03-13T03:21:52;9.02;;;2.20;;
69953;SDS011;57276;51.364;12.376;2023-03-13T03:27:53;8.60;;;2.03;;
69953;SDS011;57276;51.364;12.376;2023-03-13T03:33:55;9.93;;;2.50;;
69953;SDS011;57276;51.364;12.376;2023-03-13T03:39:57;9.70;;;2.20;;
69953;SDS011;57276;51.364;12.376;2023-03-13T03:46:00;15.05;;;2.50;;
69953;SDS011;57276;51.364;12.376;2023-03-13T03:52:02;11.20;;;2.25;;
69953;SDS011;57276;51.364;12.376;2023-03-13T03:58:10;17.10;;;2.47;;
69953;SDS011;57276;51.364;12.376;2023-03-13T04:04:38;11.20;;;1.80;;
69953;SDS011;57276;51.364;12.376;2023-03-13T04:11:12;16.67;;;2.10;;
69953;SDS011;57276;51.364;12.376;2023-03-13T04:17:19;11.70;;;2.40;;
69953;SDS011;57276;51.364;12.376;2023-03-13T04:23:21;12.45;;;2.65;;
69953;SDS011;57276;51.364;12.376;2023-03-13T04:29:24;10.63;;;2.40;;
69953;SDS011;57276;51.364;12.376;2023-03-13T04:35:43;11.32;;;2.15;;
69953;SDS011;57276;51.364;12.376;2023-03-13T04:41:51;15.07;;;2.53;;
69953;SDS011;57276;51.364;12.376;2023-03-13T04:48:31;16.38;;;2.50;;
69953;SDS011;57276;51.364;12.376;2023-03-13T04:54:46;11.65;;;1.85;;
69953;SDS011;57276;51.364;12.376;2023-03-13T05:00:59;10.07;;;2.40;;
69953;SDS011;57276;51.364;12.376;2023-03-13T05:07:22;13.40;;;1.98;;
69953;SDS011;57276;51.364;12.376;2023-03-13T05:13:38;15.63;;;2.83;;
69953;SDS011;57276;51.364;12.376;2023-03-13T05:20:00;10.10;;;2.20;;
69953;SDS011;57276;51.364;12.376;2023-03-13T05:26:19;12.38;;;2.10;;
69953;SDS011;57276;51.364;12.376;2023-03-13T05:32:38;10.27;;;2.10;;
69953;SDS011;57276;51.364;12.376;2023-03-13T05:39:00;14.73;;;2.53;;
69953;SDS011;57276;51.364;12.376;2023-03-13T05:45:22;13.97;;;1.90;;
69953;SDS011;57276;51.364;12.376;2023-03-13T05:51:36;10.55;;;1.80;;
69953;SDS011;57276;51.364;12.376;2023-03-13T05:58:14;9.63;;;1.90;;
69953;SDS011;57276;51.364;12.376;2023-03-13T06:04:39;9.73;;;1.70;;
69953;SDS011;57276;51.364;12.376;2023-03-13T06:10:41;12.85;;;1.90;;
69953;SDS011;57276;51.364;12.376;2023-03-13T06:16:43;15.13;;;2.37;;
69953;SDS011;57276;51.364;12.376;2023-03-13T06:22:48;11.68;;;1.92;;
69953;SDS011;57276;51.364;12.376;2023-03-13T06:28:49;10.07;;;1.77;;
69953;SDS011;57276;51.364;12.376;2023-03-13T06:34:51;11.70;;;2.10;;
69953;SDS011;57276;51.364;12.376;2023-03-13T06:40:53;11.18;;;2.00;;
69953;SDS011;57276;51.364;12.376;2023-03-13T06:46:54;9.47;;;1.93;;
69953;SDS011;57276;51.364;12.376;2023-03-13T06:52:56;9.50;;;1.50;;
69953;SDS011;57276;51.364;12.376;2023-03-13T06:58:58;9.32;;;2.10;;
69953;SDS011;57276;51.364;12.376;2023-03-13T07:05:00;7.43;;;1.90;;
69953;SDS011;57276;51.364;12.376;2023-03-13T07:11:07;10.90;;;2.00;;
69953;SDS011;57276;51.364;12.376;2023-03-13T07:17:08;10.47;;;1.60;;
69953;SDS011;57276;51.364;12.376;2023-03-13T07:23:10;7.57;;;1.77;;
69953;SDS011;57276;51.364;12.376;2023-03-13T07:29:11;9.43;;;1.75;;
69953;SDS011;57276;51.364;12.376;2023-03-13T07:35:13;8.93;;;1.60;;
69953;SDS011;57276;51.364;12.376;2023-03-13T07:41:15;7.63;;;1.45;;
69953;SDS011;57276;51.364;12.376;2023-03-13T07:47:17;5.70;;;1.20;;
69953;SDS011;57276;51.364;12.376;2023-03-13T07:53:18;5.88;;;1.20;;
69953;SDS011;57276;51.364;12.376;2023-03-13T07:59:23;6.15;;;1.00;;
69953;SDS011;57276;51.364;12.376;2023-03-13T08:05:27;9.73;;;2.67;;
69953;SDS011;57276;51.364;12.376;2023-03-13T08:11:28;7.30;;;1.20;;
69953;SDS011;57276;51.364;12.376;2023-03-13T08:17:30;4.97;;;1.03;;
69953;SDS011;57276;51.364;12.376;2023-03-13T08:23:32;3.88;;;1.20;;
69953;SDS011;57276;51.364;12.376;2023-03-13T08:29:33;5.50;;;1.00;;
69953;SDS011;57276;51.364;12.376;2023-03-13T08:35:35;6.93;;;1.20;;
69953;SDS011;57276;51.364;12.376;2023-03-13T08:41:36;3.97;;;0.93;;
69953;SDS011;57276;51.364;12.376;2023-03-13T08:47:38;3.77;;;0.97;;
69953;SDS011;57276;51.364;12.376;2023-03-13T08:53:40;3.63;;;0.70;;
69953;SDS011;57276;51.364;12.376;2023-03-13T08:59:42;3.83;;;1.10;;
69953;SDS011;57276;51.364;12.376;2023-03-13T09:05:44;4.47;;;1.30;;
69953;SDS011;57276;51.364;12.376;2023-03-13T09:11:56;4.05;;;1.02;;
69953;SDS011;57276;51.364;12.376;2023-03-13T09:17:58;4.30;;;1.27;;
69953;SDS011;57276;51.364;12.376;2023-03-13T09:24:00;3.20;;;0.90;;
69953;SDS011;57276;51.364;12.376;2023-03-13T09:30:02;4.13;;;1.25;;
69953;SDS011;57276;51.364;12.376;2023-03-13T09:36:04;3.50;;;0.90;;
69953;SDS011;57276;51.364;12.376;2023-03-13T09:42:29;5.43;;;1.42;;
69953;SDS011;57276;51.364;12.376;2023-03-13T09:54:38;3.58;;;0.70;;
69953;SDS011;57276;51.364;12.376;2023-03-13T10:00:48;2.13;;;0.60;;
69953;SDS011;57276;51.364;12.376;2023-03-13T10:06:51;4.80;;;0.90;;
69953;SDS011;57276;51.364;12.376;2023-03-13T10:12:55;4.35;;;0.90;;
69953;SDS011;57276;51.364;12.376;2023-03-13T10:18:58;3.47;;;0.90;;
69953;SDS011;57276;51.364;12.376;2023-03-13T10:25:03;4.43;;;0.90;;
69953;SDS011;57276;51.364;12.376;2023-03-13T10:31:10;2.30;;;0.70;;
69953;SDS011;57276;51.364;12.376;2023-03-13T10:37:15;3.93;;;0.80;;
69953;SDS011;57276;51.364;12.376;2023-03-13T10:43:18;4.90;;;0.65;;
69953;SDS011;57276;51.364;12.376;2023-03-13T10:49:23;4.50;;;1.40;;
69953;SDS011;57276;51.364;12.376;2023-03-13T10:55:26;2.70;;;0.68;;
69953;SDS011;57276;51.364;12.376;2023-03-13T11:01:29;2.45;;;0.80;;
69953;SDS011;57276;51.364;12.376;2023-03-13T11:07:33;3.00;;;0.90;;
69953;SDS011;57276;51.364;12.376;2023-03-13T11:13:36;2.88;;;0.80;;
69953;SDS011;57276;51.364;12.376;2023-03-13T11:19:47;7.60;;;2.90;;
69953;SDS011;57276;51.364;12.376;2023-03-13T11:26:11;8.48;;;4.38;;
69953;SDS011;57276;51.364;12.376;2023-03-13T11:32:19;4.03;;;1.52;;
69953;SDS011;57276;51.364;12.376;2023-03-13T11:38:31;4.17;;;1.00;;
69953;SDS011;57276;51.364;12.376;2023-03-13T11:56:53;4.57;;;1.00;;
69953;SDS011;57276;51.364;12.376;2023-03-13T12:03:01;2.88;;;1.02;;
69953;SDS011;57276;51.364;12.376;2023-03-13T12:15:29;4.63;;;1.15;;
69953;SDS011;57276;51.364;12.376;2023-03-13T12:21:44;3.07;;;0.83;;
69953;SDS011;57276;51.364;12.376;2023-03-13T12:27:55;2.72;;;1.20;;
69953;SDS011;57276;51.364;12.376;2023-03-13T12:34:11;3.78;;;1.13;;
69953;SDS011;57276;51.364;12.376;2023-03-13T12:40:37;2.90;;;1.10;;
69953;SDS011;57276;51.364;12.376;2023-03-13T12:47:24;4.22;;;0.90;;
69953;SDS011;57276;51.364;12.376;2023-03-13T12:59:26;2.38;;;0.80;;
69953;SDS011;57276;51.364;12.376;2023-03-13T13:05:28;3.70;;;1.23;;
69953;SDS011;57276;51.364;12.376;2023-03-13T13:17:39;5.07;;;1.10;;
69953;SDS011;57276;51.364;12.376;2023-03-13T13:23:44;4.33;;;1.20;;
69953;SDS011;57276;51.364;12.376;2023-03-13T13:29:51;4.35;;;1.25;;
69953;SDS011;57276;51.364;12.376;2023-03-13T13:48:33;2.95;;;1.10;;
69953;SDS011;57276;51.364;12.376;2023-03-13T14:00:51;3.50;;;1.17;;
69953;SDS011;57276;51.364;12.376;2023-03-13T14:06:54;3.88;;;1.50;;
69953;SDS011;57276;51.364;12.376;2023-03-13T14:12:58;3.20;;;1.07;;
69953;SDS011;57276;51.364;12.376;2023-03-13T14:18:59;3.30;;;1.17;;
69953;SDS011;57276;51.364;12.376;2023-03-13T14:25:01;7.23;;;1.40;;
69953;SDS011;57276;51.364;12.376;2023-03-13T14:31:03;3.70;;;1.30;;
69953;SDS011;57276;51.364;12.376;2023-03-13T14:37:12;5.28;;;1.40;;
69953;SDS011;57276;51.364;12.376;2023-03-13T14:43:31;3.97;;;1.40;;
69953;SDS011;57276;51.364;12.376;2023-03-13T14:49:33;3.17;;;1.40;;
69953;SDS011;57276;51.364;12.376;2023-03-13T14:55:35;4.40;;;1.80;;
69953;SDS011;57276;51.364;12.376;2023-03-13T15:01:40;4.15;;;1.50;;
69953;SDS011;57276;51.364;12.376;2023-03-13T15:07:46;4.35;;;1.45;;
69953;SDS011;57276;51.364;12.376;2023-03-13T15:13:48;4.27;;;1.30;;
69953;SDS011;57276;51.364;12.376;2023-03-13T15:19:54;4.60;;;1.50;;
69953;SDS011;57276;51.364;12.376;2023-03-13T15:25:56;4.70;;;1.80;;
69953;SDS011;57276;51.364;12.376;2023-03-13T15:31:57;3.85;;;1.15;;
69953;SDS011;57276;51.364;12.376;2023-03-13T15:38:05;3.50;;;1.38;;
69953;SDS011;57276;51.364;12.376;2023-03-13T15:44:07;4.93;;;1.30;;
69953;SDS011;57276;51.364;12.376;2023-03-13T15:50:12;5.03;;;1.60;;
69953;SDS011;57276;51.364;12.376;2023-03-13T15:56:15;7.67;;;1.97;;
69953;SDS011;57276;51.364;12.376;2023-03-13T16:02:21;3.83;;;1.33;;
69953;SDS011;57276;51.364;12.376;2023-03-13T16:08:25;4.10;;;1.52;;
69953;SDS011;57276;51.364;12.376;2023-03-13T16:14:37;5.33;;;1.67;;
69953;SDS011;57276;51.364;12.376;2023-03-13T16:20:38;10.73;;;1.70;;
69953;SDS011;57276;51.364;12.376;2023-03-13T16:26:42;5.10;;;1.97;;
69953;SDS011;57276;51.364;12.376;2023-03-13T16:32:44;4.93;;;1.80;;
69953;SDS011;57276;51.364;12.376;2023-03-13T16:38:46;4.40;;;1.77;;
69953;SDS011;57276;51.364;12.376;2023-03-13T16:44:48;3.73;;;1.77;;
69953;SDS011;57276;51.364;12.376;2023-03-13T16:50:49;5.22;;;2.00;;
69953;SDS011;57276;51.364;12.376;2023-03-13T16:56:51;4.73;;;2.00;;
69953;SDS011;57276;51.364;12.376;2023-03-13T17:02:52;4.43;;;2.08;;
69953;SDS011;57276;51.364;12.376;2023-03-13T17:08:54;6.03;;;1.90;;
69953;SDS011;57276;51.364;12.376;2023-03-13T17:14:56;4.77;;;2.00;;
69953;SDS011;57276;51.364;12.376;2023-03-13T17:20:58;4.10;;;2.20;;
69953;SDS011;57276;51.364;12.376;2023-03-13T17:27:01;6.77;;;2.53;;
69953;SDS011;57276;51.364;12.376;2023-03-13T17:33:03;5.50;;;2.60;;
69953;SDS011;57276;51.364;12.376;2023-03-13T17:39:05;8.18;;;3.28;;
69953;SDS011;57276;51.364;12.376;2023-03-13T17:45:09;6.10;;;2.63;;
69953;SDS011;57276;51.364;12.376;2023-03-13T17:51:23;5.20;;;2.50;;
69953;SDS011;57276;51.364;12.376;2023-03-13T17:57:27;6.40;;;2.87;;
69953;SDS011;57276;51.364;12.376;2023-03-13T18:03:28;5.38;;;2.80;;
69953;SDS011;57276;51.364;12.376;2023-03-13T18:09:30;4.22;;;2.17;;
69953;SDS011;57276;51.364;12.376;2023-03-13T18:15:31;5.27;;;2.03;;
69953;SDS011;57276;51.364;12.376;2023-03-13T18:21:33;6.78;;;1.60;;
69953;SDS011;57276;51.364;12.376;2023-03-13T18:27:35;4.27;;;1.07;;
69953;SDS011;57276;51.364;12.376;2023-03-13T18:33:36;2.75;;;0.82;;
69953;SDS011;57276;51.364;12.376;2023-03-13T18:39:38;3.17;;;0.60;;
69953;SDS011;57276;51.364;12.376;2023-03-13T18:45:39;3.93;;;0.77;;
69953;SDS011;57276;51.364;12.376;2023-03-13T18:51:42;2.33;;;0.60;;
69953;SDS011;57276;51.364;12.376;2023-03-13T18:57:46;2.00;;;0.50;;
69953;SDS011;57276;51.364;12.376;2023-03-13T19:03:48;2.80;;;0.60;;
69953;SDS011;57276;51.364;12.376;2023-03-13T19:09:50;2.50;;;0.80;;
69953;SDS011;57276;51.364;12.376;2023-03-13T19:15:52;2.37;;;0.60;;
69953;SDS011;57276;51.364;12.376;2023-03-13T19:21:53;2.45;;;0.75;;
69953;SDS011;57276;51.364;12.376;2023-03-13T19:27:56;4.40;;;1.13;;
69953;SDS011;57276;51.364;12.376;2023-03-13T19:33:58;3.88;;;1.17;;
69953;SDS011;57276;51.364;12.376;2023-03-13T19:40:00;2.53;;;0.70;;
69953;SDS011;57276;51.364;12.376;2023-03-13T19:52:12;4.15;;;0.90;;
69953;SDS011;57276;51.364;12.376;2023-03-13T19:58:14;2.47;;;0.77;;
69953;SDS011;57276;51.364;12.376;2023-03-13T20:04:17;3.42;;;0.80;;
69953;SDS011;57276;51.364;12.376;2023-03-13T20:10:19;2.60;;;0.70;;
69953;SDS011;57276;51.364;12.376;2023-03-13T20:16:21;2.60;;;0.70;;
69953;SDS011;57276;51.364;12.376;2023-03-13T20:22:23;2.92;;;0.70;;
69953;SDS011;57276;51.364;12.376;2023-03-13T20:28:25;3.10;;;0.80;;
69953;SDS011;57276;51.364;12.376;2023-03-13T20:34:26;3.50;;;0.82;;
69953;SDS011;57276;51.364;12.376;2023-03-13T20:40:28;3.60;;;0.98;;
69953;SDS011;57276;51.364;12.376;2023-03-13T20:46:30;3.90;;;0.90;;
69953;SDS011;57276;51.364;12.376;2023-03-13T20:52:33;2.88;;;0.70;;
69953;SDS011;57276;51.364;12.376;2023-03-13T20:58:35;2.30;;;0.70;;
69953;SDS011;57276;51.364;12.376;2023-03-13T21:04:37;2.75;;;0.70;;
69953;SDS011;57276;51.364;12.376;2023-03-13T21:10:39;2.88;;;0.80;;
69953;SDS011;57276;51.364;12.376;2023-03-13T21:16:41;3.20;;;0.83;;
69953;SDS011;57276;51.364;12.376;2023-03-13T21:22:42;3.72;;;1.00;;
69953;SDS011;57276;51.364;12.376;2023-03-13T21:28:44;3.63;;;1.00;;
69953;SDS011;57276;51.364;12.376;2023-03-13T21:34:45;3.92;;;0.90;;
69953;SDS011;57276;51.364;12.376;2023-03-13T21:40:47;5.18;;;0.90;;
69953;SDS011;57276;51.364;12.376;2023-03-13T21:46:50;3.13;;;0.80;;
69953;SDS011;57276;51.364;12.376;2023-03-13T21:52:52;3.40;;;0.90;;
69953;SDS011;57276;51.364;12.376;2023-03-13T21:58:54;4.03;;;0.83;;
69953;SDS011;57276;51.364;12.376;2023-03-13T22:04:56;3.70;;;1.13;;
69953;SDS011;57276;51.364;12.376;2023-03-13T22:10:57;4.10;;;1.30;;
69953;SDS011;57276;51.364;12.376;2023-03-13T22:17:00;3.57;;;1.20;;
69953;SDS011;57276;51.364;12.376;2023-03-13T22:23:01;3.63;;;0.90;;
69953;SDS011;57276;51.364;12.376;2023-03-13T22:29:03;5.20;;;1.03;;
69953;SDS011;57276;51.364;12.376;2023-03-13T22:35:04;3.28;;;1.00;;
69953;SDS011;57276;51.364;12.376;2023-03-13T22:41:07;3.47;;;0.98;;
69953;SDS011;57276;51.364;12.376;2023-03-13T22:47:09;5.70;;;1.17;;
69953;SDS011;57276;51.364;12.376;2023-03-13T22:53:11;3.17;;;0.95;;
69953;SDS011;57276;51.364;12.376;2023-03-13T22:59:12;3.67;;;0.90;;
69953;SDS011;57276;51.364;12.376;2023-03-13T23:05:14;2.97;;;0.90;;
69953;SDS011;57276;51.364;12.376;2023-03-13T23:11:16;2.83;;;0.90;;
69953;SDS011;57276;51.364;12.376;2023-03-13T23:17:18;2.70;;;0.87;;
69953;SDS011;57276;51.364;12.376;2023-03-13T23:23:19;2.47;;;0.70;;
69953;SDS011;57276;51.364;12.376;2023-03-13T23:29:21;4.00;;;0.80;;
69953;SDS011;57276;51.364;12.376;2023-03-13T23:35:22;2.97;;;0.70;;
69953;SDS011;57276;51.364;12.376;2023-03-13T23:41:25;2.38;;;0.68;;
69953;SDS011;57276;51.364;12.376;2023-03-13T23:47:27;3.53;;;0.87;;
69953;SDS011;57276;51.364;12.376;2023-03-13T23:53:33;2.70;;;0.70;;
69953;SDS011;57276;51.364;12.376;2023-03-13T23:59:35;5.87;;;1.53;;
